createdAt,value
2022-12-08T00:07:41.205Z,10.10
2022-12-08T00:10:40.233Z,10.50
2022-12-08T00:12:59.210Z,10.70
2022-12-08T00:15:28.942Z,10.70
2022-12-08T01:22:32.443Z,10.20
2022-12-08T01:25:02.123Z,9.80
2022-12-08T01:27:30.494Z,9.90
2022-12-08T01:29:58.906Z,9.50
2022-12-08T01:32:27.291Z,9.90
2022-12-08T01:34:55.625Z,9.60
2022-12-08T01:37:24.053Z,9.80
2022-12-08T01:39:52.370Z,10.20
2022-12-08T01:42:24.142Z,10.10
2022-12-08T01:45:00.849Z,10.10
2022-12-08T01:47:37.346Z,9.80
2022-12-08T01:50:10.935Z,10.10
2022-12-08T01:52:44.115Z,10.30
2022-12-08T01:55:20.357Z,10.30
2022-12-08T01:57:54.012Z,10.10
2022-12-08T02:00:23.969Z,9.50
2022-12-08T02:02:58.494Z,9.70
2022-12-08T02:05:30.998Z,9.80
2022-12-08T02:08:04.386Z,9.90
2022-12-08T02:10:37.070Z,9.40
2022-12-08T02:13:09.745Z,9.90
2022-12-08T02:15:47.186Z,9.90
2022-12-08T02:18:35.421Z,10.30
2022-12-08T02:21:10.133Z,10.40
2022-12-08T02:23:50.702Z,9.90
2022-12-08T02:27:16.138Z,8.40
2022-12-08T02:30:26.064Z,9.00
2022-12-08T02:33:54.841Z,9.80
2022-12-08T02:36:28.278Z,9.40
2022-12-08T02:39:04.614Z,10.00
2022-12-08T02:41:43.152Z,10.40
2022-12-08T02:44:19.889Z,10.20
2022-12-08T02:46:53.714Z,9.80
2022-12-08T02:49:28.636Z,9.20
2022-12-08T02:52:07.927Z,9.00
2022-12-08T02:54:37.558Z,9.70
2022-12-08T02:57:30.589Z,8.80
2022-12-08T03:00:08.467Z,8.70
2022-12-08T03:02:53.845Z,8.70
2022-12-08T03:05:59.007Z,7.30
2022-12-08T03:08:35.489Z,8.10
2022-12-08T03:11:11.015Z,8.30
2022-12-08T03:13:45.813Z,7.40
2022-12-08T03:16:18.809Z,8.60
2022-12-08T03:18:52.203Z,9.20
2022-12-08T03:21:23.328Z,9.10
2022-12-08T03:23:56.846Z,9.70
2022-12-08T03:26:31.750Z,10.00
2022-12-08T03:29:00.537Z,10.20
2022-12-08T03:31:35.034Z,9.80
2022-12-08T03:34:06.299Z,9.50
2022-12-08T03:36:36.227Z,9.80
2022-12-08T03:39:05.164Z,10.20
2022-12-08T03:41:33.578Z,10.30
2022-12-08T03:44:01.905Z,10.10
2022-12-08T03:46:32.314Z,10.30
2022-12-08T03:49:00.666Z,10.40
2022-12-08T03:51:29.107Z,10.30
2022-12-08T03:53:58.809Z,9.20
2022-12-08T03:56:30.989Z,9.10
2022-12-08T03:59:00.205Z,8.70
2022-12-08T04:01:28.824Z,7.60
2022-12-08T04:03:57.512Z,8.60
2022-12-08T04:06:26.448Z,9.00
2022-12-08T04:08:54.793Z,9.40
2022-12-08T04:11:24.615Z,9.30
2022-12-08T04:13:52.973Z,9.70
2022-12-08T04:16:24.622Z,10.00
2022-12-08T04:18:53.423Z,10.00
2022-12-08T04:21:22.028Z,10.30
2022-12-08T04:23:52.894Z,10.50
2022-12-08T04:26:24.716Z,8.90
2022-12-08T04:28:53.154Z,9.70
2022-12-08T04:31:21.570Z,9.70
2022-12-08T04:33:49.986Z,9.00
2022-12-08T04:36:18.325Z,9.80
2022-12-08T04:38:46.898Z,8.20
2022-12-08T04:41:15.293Z,8.80
2022-12-08T04:43:45.576Z,9.80
2022-12-08T04:46:14.241Z,10.20
2022-12-08T04:48:43.019Z,10.10
2022-12-08T04:51:17.953Z,10.30
2022-12-08T04:53:47.422Z,9.60
2022-12-08T04:56:17.960Z,9.40
2022-12-08T04:58:48.365Z,8.90
2022-12-08T05:01:16.918Z,7.50
2022-12-08T05:03:45.291Z,7.60
2022-12-08T05:06:15.348Z,8.50
2022-12-08T05:08:44.600Z,9.00
2022-12-08T05:11:14.556Z,8.00
2022-12-08T05:13:42.911Z,8.70
2022-12-08T05:16:15.593Z,9.50
2022-12-08T05:18:44.833Z,9.80
2022-12-08T05:21:13.579Z,9.30
2022-12-08T05:23:41.984Z,9.10
2022-12-08T05:26:10.373Z,8.90
2022-12-08T05:28:41.785Z,9.00
2022-12-08T05:31:12.046Z,8.90
2022-12-08T05:33:40.496Z,9.20
2022-12-08T05:36:10.184Z,9.70
2022-12-08T05:38:38.743Z,9.90
2022-12-08T05:41:08.534Z,10.20
2022-12-08T05:43:37.523Z,9.70
2022-12-08T05:46:06.304Z,9.20
2022-12-08T05:48:36.781Z,8.90
2022-12-08T05:51:06.084Z,9.50
2022-12-08T05:53:34.492Z,8.50
2022-12-08T05:56:02.824Z,8.70
2022-12-08T05:58:31.199Z,8.70
2022-12-08T06:00:59.536Z,8.70
2022-12-08T06:03:27.954Z,9.60
2022-12-08T06:05:57.901Z,8.90
2022-12-08T06:08:26.299Z,9.30
2022-12-08T06:10:54.783Z,9.20
2022-12-08T06:13:23.116Z,9.50
2022-12-08T06:15:51.476Z,8.20
2022-12-08T06:18:19.837Z,8.30
2022-12-08T06:20:48.250Z,8.40
2022-12-08T06:23:18.068Z,7.30
2022-12-08T06:25:46.453Z,7.40
2022-12-08T06:28:14.785Z,7.00
2022-12-08T06:30:43.148Z,8.00
2022-12-08T06:33:11.511Z,7.80
2022-12-08T06:35:39.892Z,8.30
2022-12-08T06:38:08.239Z,7.90
2022-12-08T06:40:37.981Z,8.60
2022-12-08T06:43:06.358Z,8.40
2022-12-08T06:45:34.759Z,7.70
2022-12-08T06:48:03.735Z,7.80
2022-12-08T06:50:33.420Z,8.60
2022-12-08T06:53:05.453Z,8.80
2022-12-08T06:55:57.770Z,8.70
2022-12-08T06:58:24.369Z,8.50
2022-12-08T07:00:52.846Z,8.20
2022-12-08T07:03:21.228Z,8.90
2022-12-08T07:05:49.745Z,9.30
2022-12-08T07:08:18.154Z,9.20
2022-12-08T07:10:46.618Z,8.70
2022-12-08T07:13:14.968Z,7.20
2022-12-08T07:15:44.764Z,7.80
2022-12-08T07:18:13.274Z,7.90
2022-12-08T07:20:41.612Z,7.80
2022-12-08T07:23:09.922Z,8.70
2022-12-08T07:25:38.416Z,9.30
2022-12-08T07:28:11.691Z,9.00
2022-12-08T07:30:40.340Z,9.40
2022-12-08T07:33:10.039Z,9.60
2022-12-08T07:35:38.423Z,9.60
2022-12-08T07:38:06.790Z,9.10
2022-12-08T07:40:35.253Z,9.50
2022-12-08T07:43:03.587Z,8.70
2022-12-08T07:45:32.099Z,8.50
2022-12-08T07:48:00.970Z,8.30
2022-12-08T07:50:30.691Z,9.10
2022-12-08T07:52:59.036Z,8.80
2022-12-08T07:55:27.546Z,7.90
2022-12-08T07:57:56.240Z,8.70
2022-12-08T08:07:53.398Z,9.30
2022-12-08T08:10:21.834Z,9.70
2022-12-08T08:12:50.169Z,9.80
2022-12-08T08:15:19.371Z,7.70
2022-12-08T08:17:52.047Z,8.20
2022-12-08T08:20:22.356Z,8.50
2022-12-08T08:22:53.146Z,8.20
2022-12-08T08:25:23.504Z,6.50
2022-12-08T08:27:52.113Z,6.20
2022-12-08T08:30:21.227Z,6.50
2022-12-08T08:32:50.576Z,7.00
2022-12-08T08:35:19.369Z,7.40
2022-12-08T08:37:49.411Z,7.90
2022-12-08T08:40:19.711Z,8.10
2022-12-08T08:47:45.431Z,9.20
2022-12-08T08:50:13.969Z,8.60
2022-12-08T08:52:42.626Z,8.30
2022-12-08T08:55:11.463Z,7.20
2022-12-08T08:57:41.292Z,8.40
2022-12-08T09:00:11.569Z,9.20
2022-12-08T09:05:09.920Z,8.90
2022-12-08T09:10:09.321Z,9.00
2022-12-08T09:12:37.896Z,8.50
2022-12-08T09:15:08.897Z,9.00
2022-12-08T09:20:08.650Z,9.40
2022-12-08T09:25:06.399Z,10.00
2022-12-08T09:27:34.948Z,9.00
2022-12-08T09:30:03.618Z,9.40
2022-12-08T09:32:33.533Z,9.80
2022-12-08T09:35:02.319Z,10.00
2022-12-08T09:37:30.687Z,9.30
2022-12-08T09:39:59.117Z,9.90
2022-12-08T09:42:39.543Z,8.90
2022-12-08T09:45:13.001Z,9.70
2022-12-08T09:53:01.694Z,9.70
2022-12-08T09:55:41.931Z,9.40
2022-12-08T09:58:22.526Z,9.80
2022-12-08T10:03:31.187Z,9.90
2022-12-08T10:19:16.175Z,9.00
2022-12-08T10:24:23.511Z,8.60
2022-12-08T10:26:52.087Z,8.50
2022-12-08T10:29:20.445Z,8.00
2022-12-08T10:31:48.879Z,8.40
2022-12-08T10:34:23.196Z,9.20
2022-12-08T10:39:46.970Z,8.20
2022-12-08T10:42:22.144Z,8.70
2022-12-08T10:47:36.282Z,9.00
2022-12-08T10:52:55.536Z,9.70
2022-12-08T10:55:25.262Z,9.50
2022-12-08T10:57:53.740Z,9.40
2022-12-08T11:00:26.103Z,9.90
2022-12-08T11:02:59.570Z,9.80
2022-12-08T11:05:34.535Z,9.30
2022-12-08T11:08:04.122Z,9.00
2022-12-08T11:10:36.894Z,9.80
2022-12-08T11:13:08.352Z,10.10
2022-12-08T11:15:41.508Z,9.70
2022-12-08T11:18:27.017Z,9.10
2022-12-08T11:44:22.789Z,8.60
2022-12-08T11:46:57.023Z,10.00
2022-12-08T11:49:37.837Z,9.80
2022-12-08T11:52:19.592Z,10.10
2022-12-08T11:59:55.593Z,10.30
2022-12-08T12:02:27.425Z,8.90
2022-12-08T12:05:02.214Z,9.10
2022-12-08T12:07:56.727Z,8.90
2022-12-08T12:10:55.130Z,7.90
2022-12-08T12:16:43.337Z,8.40
2022-12-08T12:19:15.732Z,8.50
2022-12-08T12:21:48.102Z,8.20
2022-12-08T12:24:26.105Z,8.10
2022-12-08T12:27:07.799Z,8.70
2022-12-08T12:29:39.588Z,8.10
2022-12-08T12:32:10.986Z,8.30
2022-12-08T13:23:03.764Z,8.80
